Flight Track Log - Related Links

Times and Time Zones

All times are in EDT time to prevent confusion due to time zone crossing. See the XOJ793 flight status page for this flight to view local times or setup timezone preferences in your user account.

Time Position Orientation Groundspeed Altitude Reporting Facility
EDT Latitude Longitude Course Direction KTS MPH feet Rate Location/Type
Wed 02:57:07 PM 25.9217 -80.1867 84° East 269 310 2,000  Level Miami Center
Wed 02:58:08 PM 25.9453 -80.1119 71° East 265 305 2,000 -49 Level Miami Center
Wed 02:59:09 PM 25.9747 -80.0422 65° Northeast 253 291 1,900 246 Descending Miami Center
Wed 03:00:10 PM 25.9836 -79.9642 83° East 254 292 2,500 2,091 Climbing Miami Center
Wed 03:01:21 PM 25.9950 -79.8647 83° East 262 302 6,500 2,932 Climbing Miami Center
Wed 03:02:23 PM 26.0031 -79.7803 84° East 273 314 9,000 2,780 Climbing Miami Center
Wed 03:03:24 PM 26.0478 -79.7078 56° Northeast 282 325 12,200 2,585 Climbing Miami Center
Wed 03:04:26 PM 26.0964 -79.6353 53° Northeast 292 336 14,300 1,742 Climbing Miami Center
Wed 03:05:28 PM 26.1483 -79.5533 55° Northeast 328 377 15,800 1,452 Climbing Miami Center
Wed 03:06:30 PM 26.2061 -79.4653 54° Northeast 351 404 17,300 1,610 Climbing Miami Center
Wed 03:07:31 PM 26.2764 -79.3564 54° Northeast 370 426 19,100 1,610 Climbing Miami Center
Wed 03:08:33 PM 26.3414 -79.2531 55° Northeast 386 444 20,600 1,452 Climbing Miami Center
Wed 03:09:35 PM 26.4114 -79.1553 51° Northeast 399 459 22,100 1,452 Climbing Miami Center
Wed 03:10:37 PM 26.5239 -79.1178 17° North 419 482 23,600 1,463 Climbing Miami Center
Wed 03:11:38 PM 26.6342 -79.0625 24° Northeast 437 503 25,100 1,512 Climbing Miami Center
Wed 03:12:40 PM 26.7397 -78.9953 30° Northeast 432 497 26,700 1,500 Climbing Miami Center
Wed 03:13:42 PM 26.8489 -78.9261 29° Northeast 442 509 28,200 1,452 Climbing Miami Center
Wed 03:14:44 PM 26.9569 -78.8558 30° Northeast 443 510 29,700 1,500 Climbing Miami Center
Wed 03:15:46 PM 27.0678 -78.7864 29° Northeast 449 517 31,300 1,659 Climbing Miami Center
Wed 03:16:47 PM 27.1975 -78.7044 29° Northeast 453 521 33,100 1,512 Climbing Miami Center
Wed 03:17:49 PM 27.3144 -78.6317 29° Northeast 460 529 34,400 1,258 Climbing Miami Center
Wed 03:18:51 PM 27.4447 -78.5939 14° North 484 557 35,700 1,210 Climbing Miami Center
Wed 03:19:53 PM 27.5817 -78.5800 North 487 560 36,900 1,161 Climbing Miami Center
Wed 03:20:55 PM 27.7211 -78.5664 North 497 572 38,100 1,171 Climbing Miami Center
Wed 03:21:56 PM 27.8614 -78.5533 North 500 575 39,300 1,220 Climbing Miami Center
Wed 03:22:58 PM 28.0000 -78.5408 North 501 577 40,600 1,258 Climbing Miami Center
Wed 03:24:00 PM 28.1369 -78.5272 North 496 571 41,900 1,258 Climbing Miami Center
Wed 03:25:02 PM 28.2772 -78.5147 North 488 562 43,200 1,016 Climbing Miami Center
Wed 03:26:04 PM 28.4094 -78.5008 North 479 551 44,000 774 Climbing Miami Center
Wed 03:27:06 PM 28.5681 -78.4856 North 479 551 44,800 488 Climbing Miami Center
Wed 03:28:07 PM 28.7006 -78.4706 North 479 551 45,000 98 Climbing Miami Center
Wed 03:29:09 PM 28.8383 -78.4589 North 489 563 45,000  Level Miami Center
Wed 03:30:11 PM 28.9750 -78.4450 North 492 566 45,000  Level Miami Center
Wed 03:31:13 PM 29.1128 -78.4314 North 495 570 45,000  Level Miami Center
Wed 03:32:15 PM 29.2506 -78.4183 North 494 568 45,000  Level Miami Center
Wed 03:33:17 PM 29.4186 -78.4022 North 501 577 45,000  Level Miami Center
Wed 03:34:19 PM 29.5547 -78.3892 North 497 572 45,000  Level Miami Center
Wed 03:35:07 PM 29.6647 -78.3733 North 465 535 45,000  Level Jacksonville Center
Wed 03:36:07 PM 29.8019 -78.3622 North 474 545 45,000  Level Jacksonville Center
Wed 03:37:07 PM 29.9353 -78.3511 North 484 557 45,000  Level Jacksonville Center
Wed 03:38:07 PM 30.0703 -78.3350 North 481 554 45,000  Level Jacksonville Center
Wed 03:39:07 PM 30.2139 -78.3236 North 499 574 45,000  Level Jacksonville Center
Wed 03:40:08 PM 30.3406 -78.3078 North 493 567 45,000  Level Jacksonville Center
Wed 03:41:07 PM 30.4800 -78.2914 North 490 564 45,000  Level Jacksonville Center
Wed 03:42:08 PM 30.6233 -78.2772 North 498 573 45,000  Level Jacksonville Center
Wed 03:43:07 PM 30.7606 -78.2633 North 498 573 45,000  Level Jacksonville Center
Wed 03:44:07 PM 30.9000 -78.2494 North 496 571 45,000  Level Jacksonville Center
Wed 03:45:08 PM 31.0225 -78.2311 North 493 567 45,000  Level Jacksonville Center
Wed 03:46:07 PM 31.1597 -78.2172 North 493 567 45,000  Level Jacksonville Center
Wed 03:47:07 PM 31.2992 -78.2028 North 493 567 45,000  Level Jacksonville Center
Wed 03:48:07 PM 31.4342 -78.1864 North 498 573 45,000  Level Jacksonville Center
Wed 03:49:07 PM 31.5714 -78.1697 North 498 573 45,000  Level Jacksonville Center
Wed 03:50:07 PM 31.7067 -78.1628 North 492 566 45,000  Level Jacksonville Center
Wed 03:51:07 PM 31.8419 -78.1486 North 487 560 45,000  Level Jacksonville Center
Wed 03:52:07 PM 31.9769 -78.1342 North 482 555 45,000  Level Jacksonville Center
Wed 03:53:07 PM 32.1122 -78.1197 North 482 555 45,000  Level Jacksonville Center
Wed 03:54:08 PM 32.2492 -78.1053 North 482 555 45,000  Level Jacksonville Center
Wed 03:55:07 PM 32.3844 -78.0883 North 482 555 45,000  Level Jacksonville Center
Wed 03:56:07 PM 32.5236 -78.0761 North 482 555 45,000  Level Jacksonville Center
Wed 03:57:07 PM 32.6608 -78.0589 North 487 560 45,000  Level Jacksonville Center
Wed 03:58:07 PM 32.7981 -78.0442 North 493 567 45,000  Level Jacksonville Center
Wed 03:59:07 PM 32.9350 -78.0294 North 493 567 45,000  Level Jacksonville Center
Wed 04:00:08 PM 33.0703 -78.0147 North 493 567 45,000  Level Jacksonville Center
Wed 04:01:07 PM 33.2053 -78.0022 North 493 567 45,000  Level Jacksonville Center
Wed 04:02:08 PM 33.3425 -77.9872 North 493 567 45,000  Level Jacksonville Center
Wed 04:02:55 PM 33.4436 -77.9731 North 488 562 45,000  Level Washington Center
Wed 04:04:00 PM 33.6069 -77.9561 North 488 562 45,000  Level Washington Center
Wed 04:05:01 PM 33.7444 -77.9408 North 491 565 45,000  Level Washington Center
Wed 04:06:02 PM 33.8792 -77.9258 North 492 566 45,000  Level Washington Center
Wed 04:07:05 PM 34.0161 -77.9106 North 492 566 45,000  Level Washington Center
Wed 04:08:06 PM 34.1539 -77.8964 North 500 575 45,000  Level Washington Center
Wed 04:09:09 PM 34.3100 -77.8778 North 498 573 45,000  Level Washington Center
Wed 04:10:13 PM 34.4467 -77.8708 North 498 573 45,000  Level Washington Center
Wed 04:11:14 PM 34.5831 -77.8681 North 494 568 45,000  Level Washington Center
Wed 04:12:15 PM 34.7200 -77.8669 360° North 493 567 45,000  Level Washington Center
Wed 04:13:19 PM 34.8664 -77.8642 North 494 568 45,000  Level Washington Center
Wed 04:14:20 PM 35.0283 -77.8617 North 491 565 45,000  Level Washington Center
Wed 04:15:24 PM 35.1636 -77.8603 360° North 491 565 45,000  Level Washington Center
Wed 04:16:24 PM 35.2992 -77.8578 North 491 565 45,000  Level Washington Center
Wed 04:17:28 PM 35.4333 -77.8561 North 487 560 45,000  Level Washington Center
Wed 04:18:29 PM 35.5700 -77.8550 360° North 489 563 45,000  Level Washington Center
Wed 04:19:32 PM 35.7344 -77.8528 North 493 567 45,000  Level Washington Center
Wed 04:20:33 PM 35.8722 -77.8517 360° North 493 567 45,000  Level Washington Center
Wed 04:21:36 PM 36.0119 -77.8492 North 500 575 45,000  Level Washington Center
Wed 04:22:37 PM 36.1525 -77.8467 North 501 577 45,000  Level Washington Center
Wed 04:23:40 PM 36.3211 -77.8450 360° North 506 582 45,000  Level Washington Center
Wed 04:24:44 PM 36.4572 -77.8442 360° North 506 582 45,000  Level Washington Center
Wed 04:25:44 PM 36.5969 -77.8417 North 505 581 45,000  Level Washington Center
Wed 04:26:47 PM 36.7344 -77.8006 13° North 518 596 45,000  Level Washington Center
Wed 04:27:48 PM 36.8669 -77.7311 23° Northeast 518 596 45,000  Level Washington Center
Wed 04:28:52 PM 37.0247 -77.6478 23° Northeast 517 595 45,000  Level Washington Center
Wed 04:29:53 PM 37.1567 -77.5783 23° Northeast 515 593 45,000  Level Washington Center
Wed 04:30:56 PM 37.2894 -77.5094 22° Northeast 515 593 45,000  Level Washington Center
Wed 04:31:58 PM 37.4231 -77.4411 22° Northeast 516 594 45,000  Level Washington Center
Wed 04:32:59 PM 37.5556 -77.3689 23° Northeast 516 594 45,000  Level Washington Center
Wed 04:34:02 PM 37.6878 -77.2992 23° Northeast 515 593 45,000  Level Washington Center
Wed 04:35:06 PM 37.8414 -77.2142 24° Northeast 507 583 45,000  Level Washington Center
Wed 04:36:06 PM 37.9692 -77.1456 23° Northeast 505 581 45,000  Level Washington Center
Wed 04:37:10 PM 38.0969 -77.0761 23° Northeast 504 580 45,000  Level Washington Center
Wed 04:38:10 PM 38.2236 -77.0069 23° Northeast 503 579 45,000 -435 Level Washington Center
Wed 04:39:14 PM 38.3531 -76.9008 33° Northeast 503 579 44,100 -1,680 Descending Washington Center
Wed 04:40:15 PM 38.4714 -76.7992 34° Northeast 510 587 41,500 -2,661 Descending Washington Center
Wed 04:41:18 PM 38.6042 -76.6831 34° Northeast 526 605 38,600 -2,613 Descending Washington Center
Wed 04:42:19 PM 38.7167 -76.5844 34° Northeast 540 621 36,100 -2,806 Descending Washington Center
Wed 04:43:22 PM 38.8681 -76.4497 35° Northeast 551 634 32,800 -2,928 Descending Washington Center
Wed 04:44:24 PM 38.9956 -76.3375 34° Northeast 555 639 30,000 -2,640 Descending Washington Center
Wed 04:45:27 PM 39.1222 -76.2267 34° Northeast 554 638 27,300 -2,806 Descending Washington Center
Wed 04:46:28 PM 39.2569 -76.1058 35° Northeast 526 605 24,200 -1,623 Descending Washington Center
Wed 04:47:29 PM 39.3608 -76.0061 37° Northeast 467 537 24,000 -480 Descending Washington Center
Wed 04:48:33 PM 39.4614 -75.9114 36° Northeast 450 518 23,200 -1,872 Descending Washington Center
Wed 04:49:34 PM 39.5625 -75.8144 36° Northeast 450 518 20,100 -3,168 Descending Washington Center
Wed 04:50:38 PM 39.6614 -75.7233 35° Northeast 441 507 16,600 -3,683 Descending Washington Center
Wed 04:51:15 PM 39.7333 -75.6500 38° Northeast 396 456 13,900 -2,204 Descending Philadelphia TRACON
Wed 04:52:16 PM 39.8167 -75.5833 32° Northeast 392 451 13,000 -446 Descending Philadelphia TRACON
Wed 04:53:16 PM 39.9167 -75.4833 37° Northeast 399 459 13,000  Level Philadelphia TRACON
Wed 04:54:16 PM 40.0000 -75.4000 37° Northeast 406 467 13,000  Level Philadelphia TRACON
Wed 04:55:16 PM 40.1000 -75.3167 33° Northeast 397 457 13,000 -105 Level Philadelphia TRACON
Wed 04:56:10 PM 40.1833 -75.2500 31° Northeast 393 452 12,800 -952 Descending Philadelphia TRACON
Wed 04:57:22 PM 40.2667 -75.1667 37° Northeast 314 361 11,000 -873 Descending Philadelphia TRACON
Wed 04:58:55 PM 40.3581 -75.0622 41° Northeast 314 361 10,400 -1,520 Descending Washington Center
Wed 04:59:52 PM 40.4167 -74.9667 51° Northeast 290 334 7,200 -2,821 Descending New York TRACON
Wed 05:00:52 PM 40.4833 -74.9000 37° Northeast 292 336 4,900 -1,600 Descending New York TRACON
Wed 05:01:52 PM 40.5333 -74.8167 52° Northeast 286 329 4,000 -450 Descending New York TRACON
Wed 05:02:52 PM 40.5833 -74.7500 45° Northeast 289 333 4,000  Level New York TRACON
Wed 05:03:52 PM 40.6500 -74.6833 37° Northeast 290 334 4,000  Level New York TRACON
Wed 05:04:52 PM 40.7167 -74.6167 37° Northeast 283 326 4,000 -417 Level New York TRACON
Wed 05:05:47 PM 40.7667 -74.5667 37° Northeast 276 318 3,200 -500 Descending New York TRACON
Wed 05:06:52 PM 40.8333 -74.4833 43° Northeast 253 291 3,000 -240 Descending New York TRACON
Wed 05:07:52 PM 40.8667 -74.4333 49° Northeast 210 242 2,700 -550 Descending New York TRACON
Wed 05:08:52 PM 40.8667 -74.3833 90° East 172 198 1,900 -750 Descending New York TRACON
Wed 05:09:52 PM 40.8333 -74.3833 180° South 134 154 1,200 -700 Descending New York TRACON
Wed 05:11:00 PM 40.8422 -74.2084 86° East  Level FlightAware Approximate
Wed 05:18:00 PM 40.8501 -74.0608 94° East  Level Estimated
Wed 05:19:00 PM 40.8501 -74.0608 North  Level Estimated
Wed 05:20:00 PM 40.8501 -74.0608 94° East  Level Estimated

Login

Don't have an account? Register now (free) for customized features, flight alerts, and more!